createdAt,value
2023-10-09T00:00:26.570Z,100.00
2023-10-09T00:01:28.919Z,100.00
2023-10-09T00:02:31.305Z,100.00
2023-10-09T00:03:33.831Z,100.00
2023-10-09T00:04:42.855Z,100.00
2023-10-09T00:05:45.585Z,100.00
2023-10-09T00:06:47.921Z,100.00
2023-10-09T00:07:50.481Z,100.00
2023-10-09T00:08:56.108Z,100.00
2023-10-09T00:09:58.563Z,100.00
2023-10-09T00:11:16.709Z,100.00
2023-10-09T00:12:24.428Z,100.00
2023-10-09T00:13:33.929Z,100.00
2023-10-09T00:14:39.904Z,100.00
2023-10-09T00:15:43.369Z,100.00
2023-10-09T00:16:49.511Z,100.00
2023-10-09T00:17:52.698Z,100.00
2023-10-09T00:18:55.055Z,100.00
2023-10-09T00:20:00.883Z,100.00
2023-10-09T00:21:13.525Z,100.00
2023-10-09T00:22:21.941Z,100.00
2023-10-09T00:23:26.690Z,100.00
2023-10-09T00:24:29.728Z,100.00
2023-10-09T00:25:37.228Z,100.00
2023-10-09T00:26:44.960Z,100.00
2023-10-09T00:27:47.681Z,100.00
2023-10-09T00:28:52.825Z,100.00
2023-10-09T00:29:56.656Z,100.00
2023-10-09T00:30:59.373Z,100.00
2023-10-09T00:32:06.610Z,100.00
2023-10-09T00:33:10.725Z,100.00
2023-10-09T00:34:19.760Z,100.00
2023-10-09T00:35:37.687Z,100.00
2023-10-09T00:36:51.714Z,100.00
2023-10-09T00:38:01.996Z,100.00
2023-10-09T00:39:14.105Z,100.00
2023-10-09T00:40:28.354Z,100.00
2023-10-09T00:41:36.337Z,100.00
2023-10-09T00:42:39.883Z,100.00
2023-10-09T00:43:44.764Z,100.00
2023-10-09T00:44:49.409Z,100.00
2023-10-09T00:45:52.423Z,100.00
2023-10-09T00:46:55.126Z,100.00
2023-10-09T00:47:58.418Z,100.00
2023-10-09T00:49:02.898Z,100.00
2023-10-09T00:50:21.718Z,100.00
2023-10-09T00:51:25.551Z,100.00
2023-10-09T00:52:50.979Z,100.00
2023-10-09T00:53:59.424Z,100.00
2023-10-09T00:55:05.459Z,100.00
2023-10-09T00:56:12.606Z,100.00
2023-10-09T00:58:10.923Z,100.00
2023-10-09T00:59:17.298Z,100.00
2023-10-09T01:00:46.868Z,100.00
2023-10-09T01:01:57.643Z,100.00
2023-10-09T01:03:24.882Z,100.00
2023-10-09T01:04:30.911Z,100.00
2023-10-09T01:05:34.970Z,100.00
2023-10-09T01:06:44.930Z,100.00
2023-10-09T01:07:49.756Z,100.00
2023-10-09T01:09:09.827Z,100.00
2023-10-09T01:10:12.450Z,100.00
2023-10-09T01:11:24.537Z,100.00
2023-10-09T01:12:29.860Z,100.00
2023-10-09T01:13:54.223Z,100.00
2023-10-09T01:14:57.390Z,100.00
2023-10-09T01:16:06.054Z,100.00
2023-10-09T01:17:12.658Z,100.00
2023-10-09T01:18:15.066Z,100.00
2023-10-09T01:19:26.308Z,100.00
2023-10-09T01:20:31.934Z,100.00
2023-10-09T01:21:34.190Z,100.00
2023-10-09T01:22:36.450Z,100.00
2023-10-09T01:23:44.154Z,100.00
2023-10-09T01:24:49.364Z,100.00
2023-10-09T01:25:52.238Z,100.00
2023-10-09T01:26:58.506Z,100.00
2023-10-09T01:28:00.745Z,100.00
2023-10-09T01:29:04.900Z,100.00
2023-10-09T01:30:11.838Z,100.00
2023-10-09T01:31:15.437Z,100.00
2023-10-09T01:32:18.282Z,100.00
2023-10-09T01:33:25.137Z,100.00
2023-10-09T01:34:37.872Z,100.00
2023-10-09T01:35:51.698Z,100.00
2023-10-09T01:37:01.012Z,100.00
2023-10-09T01:38:03.423Z,100.00
2023-10-09T01:39:24.760Z,100.00
2023-10-09T01:40:38.150Z,100.00
2023-10-09T01:41:47.788Z,100.00
2023-10-09T01:42:50.256Z,100.00
2023-10-09T01:43:57.983Z,100.00
2023-10-09T01:45:10.603Z,100.00
2023-10-09T01:46:13.452Z,100.00
2023-10-09T01:47:15.831Z,100.00
2023-10-09T01:48:24.949Z,100.00
2023-10-09T01:49:33.330Z,100.00
2023-10-09T01:50:42.838Z,100.00
2023-10-09T01:51:45.095Z,100.00
2023-10-09T01:52:50.144Z,100.00
2023-10-09T01:53:57.998Z,100.00
2023-10-09T01:55:07.304Z,100.00
2023-10-09T01:56:15.980Z,100.00
2023-10-09T01:57:25.855Z,100.00
2023-10-09T01:58:33.316Z,100.00
2023-10-09T01:59:39.084Z,100.00
2023-10-09T02:02:27.997Z,100.00
2023-10-09T02:03:32.264Z,100.00
2023-10-09T02:04:34.701Z,100.00
2023-10-09T02:05:37.634Z,100.00
2023-10-09T02:06:41.124Z,100.00
2023-10-09T02:07:53.275Z,100.00
2023-10-09T02:08:57.255Z,100.00
2023-10-09T02:09:59.458Z,100.00
2023-10-09T02:11:03.608Z,100.00
2023-10-09T02:12:06.310Z,100.00
2023-10-09T02:13:10.167Z,100.00
2023-10-09T02:14:20.459Z,100.00
2023-10-09T02:15:41.594Z,100.00
2023-10-09T02:16:43.913Z,100.00
2023-10-09T02:18:02.221Z,100.00
2023-10-09T02:19:09.224Z,100.00
2023-10-09T02:20:19.476Z,100.00
2023-10-09T02:21:54.425Z,100.00
2023-10-09T02:22:56.657Z,100.00
2023-10-09T02:23:58.890Z,100.00
2023-10-09T02:25:06.268Z,100.00
2023-10-09T02:26:10.279Z,100.00
2023-10-09T02:27:14.038Z,100.00
2023-10-09T02:28:19.353Z,100.00
2023-10-09T02:29:24.934Z,100.00
2023-10-09T02:30:30.440Z,100.00
2023-10-09T02:31:42.334Z,100.00
2023-10-09T02:32:45.846Z,100.00
2023-10-09T02:33:49.299Z,100.00
2023-10-09T02:34:54.593Z,100.00
2023-10-09T02:36:00.594Z,100.00
2023-10-09T02:37:07.453Z,100.00
2023-10-09T02:38:11.789Z,100.00
2023-10-09T02:39:43.172Z,100.00
2023-10-09T02:41:14.418Z,100.00
2023-10-09T02:42:16.743Z,100.00
2023-10-09T02:43:20.008Z,100.00
2023-10-09T02:44:27.109Z,100.00
2023-10-09T02:45:36.056Z,100.00
2023-10-09T02:46:41.221Z,100.00
2023-10-09T02:47:44.043Z,100.00
2023-10-09T02:48:53.474Z,100.00
2023-10-09T02:50:01.705Z,100.00
2023-10-09T02:51:03.996Z,100.00
2023-10-09T02:52:08.988Z,100.00
2023-10-09T02:53:19.474Z,100.00
2023-10-09T02:54:21.772Z,100.00
2023-10-09T02:55:26.781Z,100.00
2023-10-09T02:56:39.336Z,100.00
2023-10-09T02:57:42.843Z,100.00
2023-10-09T02:58:45.059Z,100.00
2023-10-09T02:59:48.790Z,100.00
2023-10-09T03:00:52.801Z,100.00
2023-10-09T03:01:55.252Z,100.00
2023-10-09T03:02:59.404Z,100.00
2023-10-09T03:04:03.867Z,100.00
2023-10-09T03:05:06.961Z,100.00
2023-10-09T03:06:12.365Z,100.00
2023-10-09T03:07:15.045Z,100.00
2023-10-09T03:08:20.347Z,100.00
2023-10-09T03:09:27.854Z,100.00
2023-10-09T03:10:30.706Z,100.00
2023-10-09T03:11:33.368Z,100.00
2023-10-09T03:12:35.656Z,100.00
2023-10-09T03:13:37.951Z,100.00
2023-10-09T03:14:42.576Z,100.00
2023-10-09T03:15:45.260Z,100.00
2023-10-09T03:16:50.337Z,100.00
2023-10-09T03:17:52.577Z,100.00
2023-10-09T03:18:54.997Z,100.00
2023-10-09T03:19:57.272Z,100.00
2023-10-09T03:21:00.332Z,100.00
2023-10-09T03:22:02.929Z,100.00
2023-10-09T03:23:07.137Z,100.00
2023-10-09T03:24:09.720Z,100.00
2023-10-09T03:25:17.844Z,100.00
2023-10-09T03:26:22.306Z,100.00
2023-10-09T03:27:24.888Z,100.00
2023-10-09T03:28:27.341Z,100.00
2023-10-09T03:29:29.541Z,100.00
2023-10-09T03:30:33.692Z,100.00
2023-10-09T03:31:37.568Z,100.00
2023-10-09T03:32:39.901Z,100.00
2023-10-09T03:33:42.478Z,100.00
2023-10-09T03:34:44.904Z,100.00
2023-10-09T03:35:47.282Z,100.00
2023-10-09T03:36:52.550Z,100.00
2023-10-09T03:37:58.228Z,100.00
2023-10-09T03:39:00.821Z,100.00
2023-10-09T03:40:05.239Z,100.00
2023-10-09T03:41:07.884Z,100.00
2023-10-09T03:42:20.320Z,100.00
2023-10-09T03:43:22.728Z,100.00
2023-10-09T03:44:31.566Z,100.00
2023-10-09T03:45:36.400Z,100.00
2023-10-09T03:46:38.670Z,100.00
2023-10-09T03:47:44.696Z,100.00
2023-10-09T03:48:50.498Z,100.00
2023-10-09T03:49:54.492Z,100.00
2023-10-09T03:51:09.992Z,100.00
2023-10-09T03:52:12.884Z,100.00
2023-10-09T03:53:15.413Z,100.00
2023-10-09T03:54:21.410Z,100.00
2023-10-09T03:55:28.910Z,100.00
2023-10-09T03:56:32.332Z,100.00
2023-10-09T03:57:34.970Z,100.00
2023-10-09T03:58:37.194Z,100.00
2023-10-09T03:59:39.355Z,100.00
2023-10-09T04:00:48.055Z,100.00
2023-10-09T04:01:53.660Z,100.00
2023-10-09T04:02:58.334Z,100.00
2023-10-09T04:04:01.984Z,100.00
2023-10-09T04:05:06.481Z,100.00
2023-10-09T04:06:11.192Z,100.00
2023-10-09T04:07:17.459Z,100.00
2023-10-09T04:08:22.598Z,100.00
2023-10-09T04:09:24.805Z,100.00
2023-10-09T04:10:35.363Z,100.00
2023-10-09T04:11:37.560Z,100.00
2023-10-09T04:12:40.806Z,100.00
2023-10-09T04:13:47.019Z,100.00
2023-10-09T04:15:02.269Z,100.00
2023-10-09T04:16:12.391Z,100.00
2023-10-09T04:17:24.059Z,100.00
2023-10-09T04:18:29.378Z,100.00
2023-10-09T04:19:39.914Z,100.00
2023-10-09T04:21:08.835Z,100.00
2023-10-09T04:22:26.925Z,100.00
2023-10-09T04:23:36.758Z,100.00
2023-10-09T04:24:45.564Z,100.00
2023-10-09T04:25:52.074Z,100.00
2023-10-09T04:26:57.320Z,100.00
2023-10-09T04:28:20.531Z,100.00
2023-10-09T04:29:27.805Z,100.00
2023-10-09T04:30:30.630Z,100.00
2023-10-09T04:31:33.419Z,100.00
2023-10-09T04:32:36.051Z,100.00
2023-10-09T04:33:55.097Z,100.00
2023-10-09T04:35:17.269Z,100.00
2023-10-09T04:36:19.501Z,100.00
2023-10-09T04:37:37.699Z,100.00
2023-10-09T04:38:39.954Z,100.00
2023-10-09T04:39:48.961Z,100.00
2023-10-09T04:40:52.878Z,100.00
2023-10-09T04:42:15.235Z,100.00
2023-10-09T04:43:23.225Z,100.00
2023-10-09T04:44:30.502Z,100.00
2023-10-09T04:45:45.116Z,100.00
2023-10-09T04:47:06.181Z,100.00
2023-10-09T04:48:08.957Z,100.00
2023-10-09T04:49:30.098Z,100.00
2023-10-09T04:50:32.424Z,100.00
2023-10-09T04:51:37.674Z,100.00
2023-10-09T04:52:40.075Z,100.00
2023-10-09T04:53:49.045Z,100.00
2023-10-09T04:55:11.572Z,100.00
2023-10-09T04:56:16.934Z,100.00
2023-10-09T04:57:19.273Z,100.00
2023-10-09T04:58:28.934Z,100.00
2023-10-09T04:59:31.197Z,100.00
2023-10-09T05:00:33.455Z,100.00
2023-10-09T05:01:44.929Z,100.00
2023-10-09T05:02:56.033Z,100.00
2023-10-09T05:04:04.126Z,100.00
2023-10-09T05:05:39.380Z,100.00
2023-10-09T05:06:55.872Z,100.00
2023-10-09T05:07:58.237Z,100.00
2023-10-09T05:09:09.179Z,100.00
2023-10-09T05:10:18.798Z,100.00
2023-10-09T05:11:43.652Z,100.00
2023-10-09T05:12:57.829Z,100.00
2023-10-09T05:14:12.742Z,100.00
2023-10-09T05:15:15.720Z,100.00
2023-10-09T05:16:20.541Z,100.00
2023-10-09T05:17:26.798Z,100.00
2023-10-09T05:18:37.565Z,100.00
2023-10-09T05:19:56.032Z,100.00
2023-10-09T05:21:18.483Z,100.00
2023-10-09T05:22:38.804Z,100.00
2023-10-09T05:24:10.346Z,100.00
2023-10-09T05:25:17.296Z,100.00
2023-10-09T05:26:49.055Z,100.00
2023-10-09T05:27:52.573Z,100.00
2023-10-09T05:28:59.308Z,100.00
2023-10-09T05:30:13.870Z,100.00
2023-10-09T05:31:54.781Z,100.00
2023-10-09T05:33:00.569Z,100.00
2023-10-09T05:34:03.370Z,100.00
2023-10-09T05:35:08.446Z,100.00
2023-10-09T05:36:32.596Z,100.00
2023-10-09T05:37:36.313Z,100.00
2023-10-09T05:38:47.253Z,100.00
2023-10-09T05:40:19.452Z,100.00
2023-10-09T05:41:40.436Z,100.00
2023-10-09T05:42:42.886Z,100.00
2023-10-09T05:44:20.310Z,100.00
2023-10-09T05:45:51.445Z,100.00
2023-10-09T05:47:23.094Z,100.00
2023-10-09T05:48:25.340Z,100.00
2023-10-09T05:49:46.886Z,100.00
2023-10-09T05:51:08.018Z,100.00
2023-10-09T05:52:30.207Z,100.00
2023-10-09T05:53:47.207Z,100.00
2023-10-09T05:55:07.729Z,100.00
2023-10-09T05:56:28.786Z,100.00
2023-10-09T05:57:53.609Z,100.00
2023-10-09T05:59:07.414Z,100.00
2023-10-09T06:00:29.111Z,100.00
2023-10-09T06:01:49.860Z,100.00
2023-10-09T06:03:10.562Z,100.00
2023-10-09T06:04:19.902Z,100.00
2023-10-09T06:05:40.720Z,100.00
2023-10-09T06:06:46.872Z,100.00
2023-10-09T06:08:07.932Z,100.00
2023-10-09T06:09:29.577Z,100.00
2023-10-09T06:10:42.005Z,100.00
2023-10-09T06:11:55.443Z,100.00
2023-10-09T06:13:05.146Z,100.00
2023-10-09T06:14:10.162Z,100.00
2023-10-09T06:15:41.182Z,100.00
2023-10-09T06:16:44.480Z,100.00
2023-10-09T06:17:53.433Z,100.00
2023-10-09T06:19:08.936Z,100.00
2023-10-09T06:20:46.844Z,100.00
2023-10-09T06:22:18.209Z,100.00
2023-10-09T06:23:24.673Z,100.00
2023-10-09T06:24:34.651Z,100.00
2023-10-09T06:25:40.335Z,100.00
2023-10-09T06:27:12.410Z,100.00
2023-10-09T06:28:14.795Z,100.00
2023-10-09T06:29:17.912Z,100.00
2023-10-09T06:30:20.303Z,100.00
2023-10-09T06:31:52.220Z,100.00
2023-10-09T06:33:14.662Z,100.00
2023-10-09T06:34:17.833Z,100.00
2023-10-09T06:35:22.851Z,100.00
2023-10-09T06:36:32.307Z,100.00
2023-10-09T06:37:34.571Z,100.00
2023-10-09T06:38:56.713Z,100.00
2023-10-09T06:39:58.992Z,100.00
2023-10-09T06:41:13.050Z,100.00
2023-10-09T06:42:33.735Z,100.00
2023-10-09T06:43:44.084Z,100.00
2023-10-09T06:44:55.198Z,100.00
2023-10-09T06:45:59.656Z,100.00
2023-10-09T06:47:08.974Z,100.00
2023-10-09T06:48:30.977Z,100.00
2023-10-09T06:49:37.103Z,100.00
2023-10-09T06:50:57.463Z,100.00
2023-10-09T06:52:16.155Z,100.00
2023-10-09T06:53:22.087Z,100.00
2023-10-09T06:54:30.915Z,100.00
2023-10-09T06:55:52.211Z,100.00
2023-10-09T06:56:54.452Z,100.00
2023-10-09T06:57:58.875Z,100.00
2023-10-09T06:59:25.693Z,100.00
2023-10-09T07:00:47.762Z,100.00
2023-10-09T07:02:09.099Z,100.00
2023-10-09T07:03:14.098Z,100.00
2023-10-09T07:04:34.361Z,100.00
2023-10-09T07:05:49.655Z,100.00
2023-10-09T07:06:52.677Z,100.00
2023-10-09T07:07:56.600Z,100.00
2023-10-09T07:09:16.733Z,100.00
2023-10-09T07:10:33.598Z,100.00
2023-10-09T07:11:40.677Z,100.00
2023-10-09T07:12:45.551Z,100.00
2023-10-09T07:13:55.267Z,100.00
2023-10-09T07:14:59.945Z,100.00
2023-10-09T07:16:20.461Z,100.00
2023-10-09T07:17:35.406Z,100.00
2023-10-09T07:18:50.663Z,100.00
2023-10-09T07:19:57.138Z,100.00
2023-10-09T07:21:02.666Z,100.00
2023-10-09T07:22:05.390Z,100.00
2023-10-09T07:23:16.874Z,100.00
2023-10-09T07:24:22.355Z,100.00
2023-10-09T07:25:42.569Z,100.00
2023-10-09T07:26:48.704Z,100.00
2023-10-09T07:27:52.773Z,100.00
2023-10-09T07:29:15.015Z,100.00
2023-10-09T07:30:31.889Z,100.00
2023-10-09T07:31:41.156Z,100.00
2023-10-09T07:32:44.531Z,100.00
2023-10-09T07:33:59.322Z,100.00
2023-10-09T07:35:01.617Z,100.00
2023-10-09T07:36:09.091Z,100.00
2023-10-09T07:37:11.473Z,100.00
2023-10-09T07:38:29.905Z,100.00
2023-10-09T07:39:35.950Z,100.00
2023-10-09T07:40:58.708Z,100.00
2023-10-09T07:42:16.595Z,100.00
2023-10-09T07:43:19.847Z,100.00
2023-10-09T07:44:37.602Z,100.00
2023-10-09T07:45:39.914Z,100.00
2023-10-09T07:46:53.874Z,100.00
2023-10-09T07:48:03.455Z,100.00
2023-10-09T07:49:15.303Z,100.00
2023-10-09T07:50:22.352Z,100.00
2023-10-09T07:51:31.918Z,100.00
2023-10-09T07:52:34.442Z,100.00
2023-10-09T07:53:44.443Z,100.00
2023-10-09T07:54:54.124Z,100.00
2023-10-09T07:55:59.626Z,100.00
2023-10-09T07:57:17.002Z,100.00
2023-10-09T07:58:26.057Z,100.00
2023-10-09T07:59:32.186Z,100.00
2023-10-09T08:00:37.429Z,100.00
2023-10-09T08:01:53.492Z,100.00
2023-10-09T08:03:01.338Z,100.00
2023-10-09T08:04:12.066Z,100.00
2023-10-09T08:05:20.682Z,100.00
2023-10-09T08:06:40.901Z,100.00
2023-10-09T08:08:05.449Z,100.00
2023-10-09T08:09:21.478Z,100.00
2023-10-09T08:10:26.140Z,100.00
2023-10-09T08:11:46.143Z,100.00
2023-10-09T08:12:48.411Z,100.00
2023-10-09T08:13:50.649Z,100.00
2023-10-09T08:15:00.336Z,100.00
2023-10-09T08:16:05.675Z,100.00
2023-10-09T08:17:17.870Z,100.00
2023-10-09T08:18:29.191Z,100.00
2023-10-09T08:19:34.393Z,100.00
2023-10-09T08:21:07.207Z,100.00
2023-10-09T08:22:38.253Z,100.00
2023-10-09T08:23:53.296Z,100.00
2023-10-09T08:24:58.678Z,100.00
2023-10-09T08:26:14.582Z,100.00
2023-10-09T08:27:47.727Z,100.00
2023-10-09T08:28:50.107Z,100.00
2023-10-09T08:30:12.313Z,100.00
2023-10-09T08:31:46.322Z,100.00
2023-10-09T08:35:31.128Z,100.00
2023-10-09T08:36:37.742Z,100.00
2023-10-09T08:37:40.245Z,100.00
2023-10-09T08:38:42.891Z,100.00
2023-10-09T08:39:46.419Z,100.00
2023-10-09T08:40:48.702Z,100.00
2023-10-09T08:41:51.300Z,100.00
2023-10-09T08:42:55.068Z,100.00
2023-10-09T08:43:58.625Z,100.00
2023-10-09T08:45:05.062Z,100.00
2023-10-09T08:46:08.304Z,100.00
2023-10-09T08:47:12.073Z,100.00
2023-10-09T08:48:18.865Z,100.00
2023-10-09T08:49:22.738Z,100.00
2023-10-09T08:50:29.430Z,100.00
2023-10-09T08:51:36.313Z,100.00
2023-10-09T08:52:38.739Z,100.00
2023-10-09T08:53:44.120Z,100.00
2023-10-09T08:54:46.377Z,100.00
2023-10-09T08:55:49.075Z,100.00
2023-10-09T08:56:51.820Z,100.00
2023-10-09T08:57:54.310Z,100.00
2023-10-09T08:58:59.351Z,100.00
2023-10-09T09:00:03.350Z,100.00
2023-10-09T09:01:05.757Z,100.00
2023-10-09T09:02:12.264Z,100.00
2023-10-09T09:03:17.350Z,100.00
2023-10-09T09:04:42.069Z,100.00
2023-10-09T09:05:53.233Z,100.00
2023-10-09T09:06:55.617Z,100.00
2023-10-09T09:08:00.634Z,100.00
2023-10-09T09:09:15.111Z,100.00
2023-10-09T09:10:23.408Z,100.00
2023-10-09T09:11:26.265Z,100.00
2023-10-09T09:12:31.922Z,100.00
2023-10-09T09:13:35.259Z,100.00
2023-10-09T09:14:39.022Z,100.00
2023-10-09T09:15:41.736Z,100.00
2023-10-09T09:16:49.277Z,100.00
2023-10-09T09:17:51.881Z,100.00
2023-10-09T09:19:16.494Z,100.00
2023-10-09T09:20:46.456Z,100.00
2023-10-09T09:21:55.205Z,100.00
2023-10-09T09:22:57.825Z,100.00
2023-10-09T09:24:02.730Z,100.00
2023-10-09T09:25:10.284Z,100.00
2023-10-09T09:26:13.252Z,100.00
2023-10-09T09:27:21.798Z,100.00
2023-10-09T09:28:24.434Z,100.00
2023-10-09T09:29:39.015Z,100.00
2023-10-09T09:30:42.198Z,100.00
2023-10-09T09:32:17.057Z,100.00
2023-10-09T09:33:43.633Z,100.00
2023-10-09T09:34:56.030Z,100.00
2023-10-09T09:35:59.308Z,100.00
2023-10-09T09:37:04.866Z,100.00
2023-10-09T09:38:08.673Z,100.00
2023-10-09T09:39:20.247Z,100.00
2023-10-09T09:40:34.946Z,100.00
2023-10-09T09:41:41.340Z,100.00
2023-10-09T09:42:49.400Z,100.00
2023-10-09T09:43:57.052Z,100.00
2023-10-09T09:45:03.414Z,100.00
2023-10-09T09:46:08.973Z,100.00
2023-10-09T09:47:25.038Z,100.00
2023-10-09T09:48:27.957Z,100.00
2023-10-09T09:49:32.926Z,100.00
2023-10-09T09:50:44.882Z,100.00
2023-10-09T09:53:09.429Z,100.00
2023-10-09T09:54:16.857Z,100.00
2023-10-09T09:55:23.642Z,100.00
2023-10-09T09:56:27.235Z,100.00
2023-10-09T09:57:29.973Z,100.00
2023-10-09T09:58:43.493Z,100.00
2023-10-09T09:59:53.255Z,98.53
2023-10-09T10:01:09.284Z,99.99
2023-10-09T10:02:21.868Z,98.88
2023-10-09T10:03:35.765Z,100.00
2023-10-09T10:04:40.367Z,99.24
2023-10-09T10:05:47.354Z,97.51
2023-10-09T10:06:51.138Z,99.17
2023-10-09T10:07:56.170Z,99.36
2023-10-09T10:08:58.603Z,100.00
2023-10-09T10:10:00.922Z,100.00
2023-10-09T10:11:06.112Z,100.00
2023-10-09T10:12:12.771Z,100.00
2023-10-09T10:13:16.344Z,100.00
2023-10-09T10:14:32.491Z,100.00
2023-10-09T10:15:57.860Z,100.00
2023-10-09T10:17:20.084Z,100.00
2023-10-09T10:18:24.542Z,100.00
2023-10-09T10:20:05.154Z,100.00
2023-10-09T10:21:30.238Z,100.00
2023-10-09T10:22:33.961Z,100.00
2023-10-09T10:23:37.923Z,100.00
2023-10-09T10:24:55.476Z,100.00
2023-10-09T10:26:17.510Z,100.00
2023-10-09T10:27:27.752Z,100.00
2023-10-09T10:28:40.173Z,100.00
2023-10-09T10:29:42.867Z,100.00
2023-10-09T10:30:48.280Z,100.00
2023-10-09T10:32:10.098Z,100.00
2023-10-09T10:33:16.978Z,100.00
2023-10-09T10:34:24.838Z,100.00
2023-10-09T10:35:59.706Z,100.00
2023-10-09T10:37:02.030Z,100.00
2023-10-09T10:38:12.729Z,100.00
2023-10-09T10:39:17.638Z,100.00
2023-10-09T10:40:41.408Z,96.55
2023-10-09T10:41:56.871Z,95.35
2023-10-09T10:43:10.647Z,93.72
2023-10-09T10:44:32.668Z,93.88
2023-10-09T10:45:44.651Z,92.89
2023-10-09T10:46:52.979Z,95.16
2023-10-09T10:47:59.443Z,97.22
2023-10-09T10:49:16.903Z,96.64
2023-10-09T10:50:31.375Z,96.74
2023-10-09T10:51:39.072Z,97.93
2023-10-09T10:52:44.450Z,97.32
2023-10-09T10:53:58.221Z,100.00
2023-10-09T10:55:20.206Z,100.00
2023-10-09T10:56:35.755Z,100.00
2023-10-09T10:57:56.312Z,100.00
2023-10-09T10:59:07.337Z,100.00
2023-10-09T11:00:31.761Z,100.00
2023-10-09T11:01:53.999Z,100.00
2023-10-09T11:03:14.427Z,100.00
2023-10-09T11:04:25.918Z,100.00
2023-10-09T11:05:28.737Z,100.00
2023-10-09T11:06:38.556Z,100.00
2023-10-09T11:07:42.172Z,100.00
2023-10-09T11:08:55.868Z,100.00
2023-10-09T11:10:06.601Z,100.00
2023-10-09T11:11:17.408Z,100.00
2023-10-09T11:12:39.220Z,100.00
2023-10-09T11:13:59.687Z,100.00
2023-10-09T11:15:08.830Z,100.00
2023-10-09T11:16:16.869Z,100.00
2023-10-09T11:17:26.234Z,100.00
2023-10-09T11:18:28.746Z,100.00
2023-10-09T11:19:36.793Z,100.00
2023-10-09T11:20:40.025Z,100.00
2023-10-09T11:21:42.904Z,100.00
2023-10-09T11:23:05.326Z,100.00
2023-10-09T11:24:30.349Z,100.00
2023-10-09T11:25:34.871Z,100.00
2023-10-09T11:26:43.381Z,100.00
2023-10-09T11:27:52.000Z,100.00
2023-10-09T11:29:45.104Z,100.00
2023-10-09T11:30:56.580Z,100.00
2023-10-09T11:32:18.540Z,100.00
2023-10-09T11:33:22.937Z,100.00
2023-10-09T11:34:32.661Z,100.00
2023-10-09T11:35:36.287Z,100.00
2023-10-09T11:36:39.845Z,100.00
2023-10-09T11:37:44.720Z,100.00
2023-10-09T11:38:47.358Z,100.00
2023-10-09T11:39:55.014Z,100.00
2023-10-09T11:40:58.369Z,100.00
2023-10-09T11:42:07.987Z,100.00
2023-10-09T11:43:14.588Z,100.00
2023-10-09T11:44:34.936Z,100.00
2023-10-09T11:45:39.105Z,100.00
2023-10-09T11:46:59.533Z,100.00
2023-10-09T11:48:30.276Z,100.00
2023-10-09T11:49:55.189Z,100.00
2023-10-09T11:50:57.544Z,100.00
2023-10-09T11:52:09.967Z,100.00
2023-10-09T11:53:34.310Z,100.00
2023-10-09T11:54:38.436Z,100.00
2023-10-09T11:55:53.632Z,100.00
2023-10-09T11:56:56.554Z,100.00
2023-10-09T11:57:58.776Z,100.00
2023-10-09T11:59:05.843Z,100.00
2023-10-09T12:00:12.896Z,100.00
2023-10-09T12:01:22.529Z,100.00
2023-10-09T12:02:25.075Z,100.00
2023-10-09T12:03:31.671Z,100.00
2023-10-09T12:04:34.180Z,100.00
2023-10-09T12:05:36.599Z,100.00
2023-10-09T12:06:40.537Z,100.00
2023-10-09T12:07:42.840Z,100.00
2023-10-09T12:08:47.580Z,100.00
2023-10-09T12:09:49.847Z,100.00
2023-10-09T12:10:55.958Z,100.00
2023-10-09T12:12:04.459Z,100.00
2023-10-09T12:13:08.535Z,100.00
2023-10-09T12:14:11.172Z,100.00
2023-10-09T12:15:18.453Z,100.00
2023-10-09T12:16:23.170Z,100.00
2023-10-09T12:17:28.806Z,100.00
2023-10-09T12:18:31.106Z,100.00
2023-10-09T12:19:34.903Z,100.00
2023-10-09T12:20:37.116Z,100.00
2023-10-09T12:21:44.046Z,100.00
2023-10-09T12:22:46.478Z,100.00
2023-10-09T12:23:48.886Z,100.00
2023-10-09T12:24:51.125Z,100.00
2023-10-09T12:25:57.757Z,100.00
2023-10-09T12:27:01.141Z,100.00
2023-10-09T12:28:04.087Z,100.00
2023-10-09T12:29:12.203Z,100.00
2023-10-09T12:30:15.165Z,100.00
2023-10-09T12:31:21.315Z,100.00
2023-10-09T12:32:23.730Z,100.00
2023-10-09T12:33:29.071Z,100.00
2023-10-09T12:34:31.881Z,100.00
2023-10-09T12:35:40.828Z,100.00
2023-10-09T12:36:46.793Z,100.00
2023-10-09T12:37:50.173Z,100.00
2023-10-09T12:38:55.041Z,100.00
2023-10-09T12:39:58.106Z,100.00
2023-10-09T12:41:19.972Z,100.00
2023-10-09T12:42:23.063Z,99.30
2023-10-09T12:43:27.320Z,94.96
2023-10-09T12:44:29.526Z,95.37
2023-10-09T12:45:34.813Z,93.53
2023-10-09T12:46:39.119Z,94.10
2023-10-09T12:47:43.372Z,96.58
2023-10-09T12:48:47.328Z,93.70
2023-10-09T12:49:50.425Z,91.72
2023-10-09T12:50:55.259Z,89.82
2023-10-09T12:51:58.578Z,89.83
2023-10-09T12:53:07.891Z,91.82
2023-10-09T12:54:10.458Z,87.93
2023-10-09T12:55:21.596Z,82.12
2023-10-09T12:56:33.498Z,84.11
2023-10-09T12:57:35.731Z,83.92
2023-10-09T12:58:40.995Z,84.97
2023-10-09T12:59:46.458Z,82.96
2023-10-09T13:00:52.022Z,82.61
2023-10-09T13:01:58.659Z,76.91
2023-10-09T13:03:02.369Z,75.34
2023-10-09T13:04:12.627Z,75.26
2023-10-09T13:05:27.471Z,75.57
2023-10-09T13:06:29.849Z,73.61
2023-10-09T13:07:32.393Z,71.92
2023-10-09T13:08:37.455Z,70.90
2023-10-09T13:09:45.287Z,68.35
2023-10-09T13:10:48.011Z,68.90
2023-10-09T13:11:51.251Z,67.75
2023-10-09T13:12:56.779Z,66.43
2023-10-09T13:14:08.801Z,65.52
2023-10-09T13:15:11.848Z,63.38
2023-10-09T13:16:25.936Z,62.74
2023-10-09T13:17:29.028Z,62.81
2023-10-09T13:18:32.517Z,62.95
2023-10-09T13:19:34.853Z,57.20
2023-10-09T13:20:37.161Z,55.54
2023-10-09T13:21:43.282Z,55.54
2023-10-09T13:22:49.953Z,54.77
2023-10-09T13:23:53.109Z,53.87
2023-10-09T13:25:04.678Z,49.89
2023-10-09T13:26:31.659Z,49.66
2023-10-09T13:27:36.015Z,47.21
2023-10-09T13:28:38.813Z,46.85
2023-10-09T13:29:41.550Z,45.97
2023-10-09T13:30:50.273Z,45.59
2023-10-09T13:31:58.835Z,44.98
2023-10-09T13:33:01.281Z,45.98
2023-10-09T13:34:04.765Z,45.48
2023-10-09T13:35:07.684Z,44.62
2023-10-09T13:36:18.596Z,44.20
2023-10-09T13:37:23.267Z,44.75
2023-10-09T13:38:27.320Z,44.84
2023-10-09T13:39:31.722Z,44.76
2023-10-09T13:40:36.311Z,45.69
2023-10-09T13:41:41.968Z,46.13
2023-10-09T13:42:44.211Z,44.35
2023-10-09T13:43:46.580Z,44.70
2023-10-09T13:44:49.978Z,42.58
2023-10-09T13:45:52.201Z,42.05
2023-10-09T13:46:58.311Z,41.99
2023-10-09T13:48:03.824Z,42.30
2023-10-09T13:49:10.188Z,42.55
2023-10-09T13:50:12.562Z,42.64
2023-10-09T13:51:15.198Z,42.79
2023-10-09T13:52:20.454Z,43.46
2023-10-09T13:53:22.806Z,44.03
2023-10-09T13:54:34.179Z,44.45
2023-10-09T13:55:44.438Z,45.39
2023-10-09T13:56:46.979Z,45.89
2023-10-09T13:57:49.376Z,44.79
2023-10-09T13:58:53.221Z,45.13
2023-10-09T13:59:57.070Z,45.72
2023-10-09T14:00:59.538Z,45.68
2023-10-09T14:02:03.912Z,46.28
2023-10-09T14:03:13.389Z,46.00
2023-10-09T14:04:20.269Z,46.10
2023-10-09T14:05:22.559Z,46.88
2023-10-09T14:06:32.077Z,47.23
2023-10-09T14:07:35.902Z,47.36
2023-10-09T14:08:43.194Z,48.00
2023-10-09T14:09:45.804Z,48.05
2023-10-09T14:10:49.548Z,48.01
2023-10-09T14:11:53.499Z,48.10
2023-10-09T14:12:57.817Z,48.44
2023-10-09T14:14:11.510Z,49.07
2023-10-09T14:15:18.657Z,49.87
2023-10-09T14:16:33.829Z,50.10
2023-10-09T14:17:36.216Z,50.65
2023-10-09T14:18:38.467Z,50.65
2023-10-09T14:19:51.152Z,51.97
2023-10-09T14:20:57.555Z,53.10
2023-10-09T14:21:59.848Z,52.73
2023-10-09T14:23:08.854Z,52.60
2023-10-09T14:24:19.822Z,52.77
2023-10-09T14:25:23.013Z,52.04
2023-10-09T14:26:30.209Z,52.37
2023-10-09T14:27:36.203Z,53.04
2023-10-09T14:28:38.568Z,53.70
2023-10-09T14:29:43.717Z,54.66
2023-10-09T14:30:50.021Z,55.33
2023-10-09T14:32:01.332Z,55.10